Time;durP1;ratioP1;P1;durP2;ratioP2;P2;SDS_P1;SDS_P2;PMS_P1;PMS_P2;Temp;Humidity;BMP_temperature;BMP_pressure;BME280_temperature;BME280_humidity;BME280_pressure;Samples;Min_cycle;Max_cycle;Signal;HPM_P1;HPM_P2
2022/12/27 00:00:10;;;;;;;4.90;2.70;;;;;;;;;;5009329;28;20050;-94
2022/12/27 00:02:39;;;;;;;3.40;2.97;;;;;;;;;;5010693;28;20042;-94
2022/12/27 00:05:09;;;;;;;4.30;3.10;;;;;;;;;;4990690;28;20058;-94
2022/12/27 00:07:36;;;;;;;2.88;2.67;;;;;;;;;;5002220;28;20050;-94
2022/12/27 00:10:05;;;;;;;3.00;2.80;;;;;;;;;;5000976;28;20145;-94
2022/12/27 00:12:32;;;;;;;5.00;2.83;;;;;;;;;;5000438;28;20141;-94
2022/12/27 00:14:59;;;;;;;5.97;2.95;;;;;;;;;;5000434;28;20418;-94
2022/12/27 00:17:27;;;;;;;3.50;3.00;;;;;;;;;;5000728;28;20498;-94
2022/12/27 00:19:54;;;;;;;5.35;3.45;;;;;;;;;;5001814;28;20050;-93
2022/12/27 00:22:21;;;;;;;4.20;3.00;;;;;;;;;;5002218;28;20085;-93
2022/12/27 00:24:49;;;;;;;2.95;2.75;;;;;;;;;;5000629;28;20085;-94
2022/12/27 00:27:16;;;;;;;3.08;2.85;;;;;;;;;;5000332;28;20099;-94
2022/12/27 00:29:44;;;;;;;3.55;3.25;;;;;;;;;;5000563;28;20140;-94
2022/12/27 00:32:11;;;;;;;4.43;3.70;;;;;;;;;;5003854;28;20145;-94
2022/12/27 00:34:39;;;;;;;6.80;3.75;;;;;;;;;;5004302;28;20060;-93
2022/12/27 00:37:06;;;;;;;5.13;3.33;;;;;;;;;;5004751;28;20140;-94
2022/12/27 00:39:33;;;;;;;4.57;3.20;;;;;;;;;;5003232;28;20077;-94
2022/12/27 00:42:00;;;;;;;6.15;3.42;;;;;;;;;;5003365;28;20049;-94
2022/12/27 00:44:28;;;;;;;4.90;3.80;;;;;;;;;;5005314;28;20069;-94
2022/12/27 00:46:55;;;;;;;3.85;3.45;;;;;;;;;;5003384;28;20054;-94
2022/12/27 00:49:22;;;;;;;5.53;3.25;;;;;;;;;;5002571;28;20481;-94
2022/12/27 00:51:50;;;;;;;4.03;3.63;;;;;;;;;;5002229;28;20045;-94
2022/12/27 00:54:17;;;;;;;6.22;4.07;;;;;;;;;;5002500;28;20556;-94
2022/12/27 00:56:46;;;;;;;6.85;4.22;;;;;;;;;;5003666;28;20053;-93
2022/12/27 00:59:13;;;;;;;9.73;4.22;;;;;;;;;;5007100;28;20169;-94
2022/12/27 01:01:40;;;;;;;7.70;4.00;;;;;;;;;;5006794;28;20050;-93
2022/12/27 01:04:10;;;;;;;9.02;4.18;;;;;;;;;;5003621;28;20108;-94
2022/12/27 01:06:38;;;;;;;4.63;4.05;;;;;;;;;;5006611;28;20050;-94
2022/12/27 01:09:05;;;;;;;5.45;4.03;;;;;;;;;;5005802;28;20117;-94
2022/12/27 01:11:33;;;;;;;9.32;4.15;;;;;;;;;;5004854;28;20050;-93
2022/12/27 01:14:02;;;;;;;8.20;4.35;;;;;;;;;;5004138;28;20050;-93
2022/12/27 01:16:30;;;;;;;6.97;3.97;;;;;;;;;;5002890;28;20050;-93
2022/12/27 01:18:59;;;;;;;6.53;4.03;;;;;;;;;;5006744;28;20103;-94
2022/12/27 01:21:29;;;;;;;7.78;4.03;;;;;;;;;;5008320;28;20107;-93
2022/12/27 01:23:57;;;;;;;4.85;4.00;;;;;;;;;;5004817;28;20046;-94
2022/12/27 01:26:24;;;;;;;9.40;4.15;;;;;;;;;;5002242;28;20145;-94
2022/12/27 01:28:52;;;;;;;7.18;4.55;;;;;;;;;;5002584;28;20056;-94
2022/12/27 01:31:24;;;;;;;7.72;4.22;;;;;;;;;;5006455;28;20084;-94
2022/12/27 01:33:54;;;;;;;4.78;4.30;;;;;;;;;;5009696;28;20060;-94
2022/12/27 01:36:22;;;;;;;5.88;3.88;;;;;;;;;;5010223;28;20073;-94
2022/12/27 01:38:52;;;;;;;7.28;4.30;;;;;;;;;;5011278;28;20495;-94
2022/12/27 01:44:36;;;;;;;4.82;3.80;;;;;;;;;;5030202;28;20061;-94
2022/12/27 01:47:05;;;;;;;11.35;4.45;;;;;;;;;;5023971;28;20136;-95
2022/12/27 01:49:32;;;;;;;10.73;3.70;;;;;;;;;;5009482;28;20046;-94
2022/12/27 01:52:03;;;;;;;8.38;3.28;;;;;;;;;;5010691;28;20050;-94
2022/12/27 01:54:32;;;;;;;6.43;3.55;;;;;;;;;;5005842;28;20062;-95
2022/12/27 01:56:59;;;;;;;5.63;3.35;;;;;;;;;;5004080;28;20073;-94
2022/12/27 01:59:27;;;;;;;7.88;3.28;;;;;;;;;;5001022;28;20065;-94
2022/12/27 02:01:54;;;;;;;7.53;3.80;;;;;;;;;;5001522;28;20069;-95
2022/12/27 02:04:24;;;;;;;6.45;3.35;;;;;;;;;;4999884;28;20061;-94
2022/12/27 02:06:51;;;;;;;6.95;3.58;;;;;;;;;;5000881;28;20140;-94
2022/12/27 02:09:29;;;;;;;8.43;3.70;;;;;;;;;;4999596;28;20078;-94
2022/12/27 02:12:00;;;;;;;6.03;2.97;;;;;;;;;;5001533;28;20046;-94
2022/12/27 02:14:30;;;;;;;;;;;;;;;;;;5005416;28;20081;-94
2022/12/27 02:16:58;;;;;;;6.35;2.80;;;;;;;;;;5000325;28;20378;-93
2022/12/27 02:19:32;;;;;;;8.55;3.10;;;;;;;;;;4997818;28;20056;-94
2022/12/27 02:21:59;;;;;;;;;;;;;;;;;;4999582;28;20060;-94
2022/12/27 02:24:26;;;;;;;5.28;2.42;;;;;;;;;;4997971;28;20404;-94
2022/12/27 02:27:14;;;;;;;10.50;3.80;;;;;;;;;;4998282;28;20061;-93
2022/12/27 02:30:00;;;;;;;8.95;3.20;;;;;;;;;;5013348;28;20045;-94
2022/12/27 02:32:47;;;;;;;6.80;3.17;;;;;;;;;;4996522;28;20065;-94
2022/12/27 02:35:21;;;;;;;7.13;3.03;;;;;;;;;;5003438;28;20088;-94
2022/12/27 02:37:54;;;;;;;8.40;3.42;;;;;;;;;;4996941;28;20058;-94
2022/12/27 02:54:51;;;;;;;6.35;2.65;;;;;;;;;;5013631;28;20057;-93
2022/12/27 02:57:27;;;;;;;6.70;3.00;;;;;;;;;;4997525;28;20409;-93
2022/12/27 03:06:38;;;;;;;2.95;2.60;;;;;;;;;;5014210;28;20092;-93
2022/12/27 03:08:54;;;;;;;6.97;2.60;;;;;;;;;;5015765;28;20049;-93
2022/12/27 03:17:10;;;;;;;7.00;3.15;;;;;;;;;;5014097;28;20078;-93
2022/12/27 03:25:37;;;;;;;5.10;2.88;;;;;;;;;;5017452;28;20085;-93
2022/12/27 03:34:30;;;;;;;6.25;2.42;;;;;;;;;;5020921;28;20058;-92
2022/12/27 03:40:07;;;;;;;10.82;2.60;;;;;;;;;;5021967;28;20060;-93
2022/12/27 03:46:32;;;;;;;8.63;2.60;;;;;;;;;;5023517;28;20092;-93
2022/12/27 03:48:18;;;;;;;11.40;2.38;;;;;;;;;;5020601;28;20096;-93
2022/12/27 03:50:48;;;;;;;10.80;2.95;;;;;;;;;;5002820;28;20140;-93
2022/12/27 03:53:23;;;;;;;8.07;1.92;;;;;;;;;;5003802;28;20136;-92
2022/12/27 03:55:50;;;;;;;8.63;2.33;;;;;;;;;;5005122;28;20499;-92
2022/12/27 03:58:18;;;;;;;12.35;2.15;;;;;;;;;;5002094;28;20076;-92
2022/12/27 04:00:45;;;;;;;13.52;1.98;;;;;;;;;;5007154;28;20056;-92
2022/12/27 04:03:15;;;;;;;6.18;1.90;;;;;;;;;;5020448;28;20511;-93
2022/12/27 04:05:43;;;;;;;8.82;1.80;;;;;;;;;;5004195;28;20064;-93
2022/12/27 04:35:52;;;;;;;8.88;2.03;;;;;;;;;;5017314;28;20136;-92
2022/12/27 04:38:19;;;;;;;9.15;1.63;;;;;;;;;;5000448;28;20073;-92
2022/12/27 04:55:02;;;;;;;11.57;4.60;;;;;;;;;;5016354;28;20505;-93
2022/12/27 04:57:29;;;;;;;13.18;4.55;;;;;;;;;;4999540;28;20569;-92
2022/12/27 05:02:43;;;;;;;7.68;4.07;;;;;;;;;;5019340;28;20059;-93
2022/12/27 05:05:11;;;;;;;6.80;3.30;;;;;;;;;;4991073;28;20049;-93
2022/12/27 05:15:58;;;;;;;17.33;8.55;;;;;;;;;;5025006;28;20054;-93
2022/12/27 05:18:26;;;;;;;6.78;4.07;;;;;;;;;;5006101;28;20136;-93
2022/12/27 05:20:53;;;;;;;12.20;4.80;;;;;;;;;;5004763;28;20073;-94
2022/12/27 05:26:06;;;;;;;8.07;3.47;;;;;;;;;;5020682;28;20076;-93
2022/12/27 05:28:34;;;;;;;9.85;3.90;;;;;;;;;;5004283;28;20065;-92
2022/12/27 05:31:01;;;;;;;8.57;3.40;;;;;;;;;;5004273;28;20054;-93
2022/12/27 05:33:32;;;;;;;7.78;3.65;;;;;;;;;;5004792;28;20052;-93
2022/12/27 05:36:00;;;;;;;8.65;2.90;;;;;;;;;;5019254;28;20088;-93
2022/12/27 05:38:29;;;;;;;16.48;3.67;;;;;;;;;;5004798;28;20518;-93
2022/12/27 05:40:58;;;;;;;11.70;4.78;;;;;;;;;;5002278;28;20074;-93
2022/12/27 05:43:26;;;;;;;7.85;3.03;;;;;;;;;;5003698;28;20064;-92
2022/12/27 05:45:53;;;;;;;10.88;3.50;;;;;;;;;;5001027;28;20062;-93
2022/12/27 05:48:21;;;;;;;5.72;3.30;;;;;;;;;;5002946;28;20057;-91
2022/12/27 05:50:48;;;;;;;7.97;3.08;;;;;;;;;;5000936;28;20057;-91
2022/12/27 05:53:16;;;;;;;8.73;3.00;;;;;;;;;;5002175;28;20046;-92
2022/12/27 05:55:56;;;;;;;3.50;2.95;;;;;;;;;;5018857;28;20085;-92
2022/12/27 05:58:25;;;;;;;11.38;2.83;;;;;;;;;;5000835;28;20076;-92
2022/12/27 06:00:52;;;;;;;8.18;3.25;;;;;;;;;;5001710;28;20554;-92
2022/12/27 06:03:20;;;;;;;6.88;2.83;;;;;;;;;;4999670;28;20050;-91
2022/12/27 06:05:47;;;;;;;10.52;3.75;;;;;;;;;;4999318;28;20553;-92
2022/12/27 06:08:15;;;;;;;10.93;5.68;;;;;;;;;;4998062;28;20045;-92
2022/12/27 06:10:44;;;;;;;12.13;5.68;;;;;;;;;;4997939;28;20136;-91
2022/12/27 06:13:11;;;;;;;20.10;9.93;;;;;;;;;;4999962;28;20573;-92
2022/12/27 06:15:39;;;;;;;10.20;5.80;;;;;;;;;;4998258;28;20060;-92
2022/12/27 06:18:06;;;;;;;9.65;3.47;;;;;;;;;;4998438;28;20113;-92
2022/12/27 06:20:33;;;;;;;3.47;2.67;;;;;;;;;;4999054;28;20560;-91
2022/12/27 06:23:03;;;;;;;8.00;2.88;;;;;;;;;;5000487;28;20490;-90
2022/12/27 06:25:30;;;;;;;11.52;3.17;;;;;;;;;;4997814;28;20133;-91
2022/12/27 06:27:57;;;;;;;11.07;3.30;;;;;;;;;;4998236;28;20504;-91
2022/12/27 06:30:25;;;;;;;10.82;2.88;;;;;;;;;;4998296;28;20077;-92
2022/12/27 06:32:58;;;;;;;4.40;2.97;;;;;;;;;;4998749;28;20548;-90
2022/12/27 06:35:26;;;;;;;7.03;3.00;;;;;;;;;;4997352;28;20085;-91
2022/12/27 06:37:53;;;;;;;11.45;4.90;;;;;;;;;;4997245;28;20046;-92
2022/12/27 06:40:20;;;;;;;6.00;3.38;;;;;;;;;;4997024;28;20069;-91
2022/12/27 06:42:47;;;;;;;12.85;3.88;;;;;;;;;;4997713;28;20137;-90
2022/12/27 06:45:15;;;;;;;6.32;2.17;;;;;;;;;;4996787;28;20379;-90
2022/12/27 06:47:42;;;;;;;7.32;2.67;;;;;;;;;;4996902;28;20490;-91
2022/12/27 06:50:09;;;;;;;8.50;1.88;;;;;;;;;;5013811;28;20056;-90
2022/12/27 06:52:36;;;;;;;4.70;2.13;;;;;;;;;;4996306;28;20057;-90
2022/12/27 06:55:04;;;;;;;5.75;2.30;;;;;;;;;;4996160;28;20064;-90
2022/12/27 06:57:31;;;;;;;3.33;1.80;;;;;;;;;;5013876;28;20387;-90
2022/12/27 06:59:58;;;;;;;6.82;2.22;;;;;;;;;;5013640;28;20482;-90
2022/12/27 07:02:25;;;;;;;4.22;1.83;;;;;;;;;;5013759;28;20046;-90
2022/12/27 07:04:52;;;;;;;6.63;2.10;;;;;;;;;;4996420;28;20100;-89
2022/12/27 07:07:19;;;;;;;2.75;1.63;;;;;;;;;;4996493;28;20046;-89
2022/12/27 07:09:47;;;;;;;2.80;1.48;;;;;;;;;;4996311;28;20056;-90
2022/12/27 07:12:14;;;;;;;6.40;2.08;;;;;;;;;;4996266;28;20137;-89
2022/12/27 07:14:41;;;;;;;5.63;2.00;;;;;;;;;;5013645;28;20060;-90
2022/12/27 07:17:09;;;;;;;3.35;1.60;;;;;;;;;;4996396;28;20487;-89
2022/12/27 07:19:36;;;;;;;7.00;1.95;;;;;;;;;;4996243;28;20050;-89
2022/12/27 07:22:03;;;;;;;4.57;2.22;;;;;;;;;;4996321;28;20085;-90
2022/12/27 07:24:32;;;;;;;9.25;2.90;;;;;;;;;;4996302;28;20066;-89
2022/12/27 07:27:00;;;;;;;5.88;2.85;;;;;;;;;;4996370;28;20060;-90
2022/12/27 07:29:28;;;;;;;4.53;2.38;;;;;;;;;;4996603;28;20050;-89
2022/12/27 07:31:55;;;;;;;6.63;2.63;;;;;;;;;;4996313;28;20050;-89
2022/12/27 07:34:22;;;;;;;4.72;3.17;;;;;;;;;;4996261;28;20092;-90
2022/12/27 07:36:49;;;;;;;5.00;3.70;;;;;;;;;;4996474;28;20410;-89
2022/12/27 07:39:16;;;;;;;10.88;2.70;;;;;;;;;;4996638;28;20052;-89
2022/12/27 07:41:44;;;;;;;4.25;2.47;;;;;;;;;;4996308;28;20056;-90
2022/12/27 07:44:11;;;;;;;9.52;5.93;;;;;;;;;;4997058;28;20054;-89
2022/12/27 07:46:38;;;;;;;12.48;5.72;;;;;;;;;;4996963;28;20054;-90
2022/12/27 07:49:06;;;;;;;5.88;2.25;;;;;;;;;;4995953;28;20406;-90
2022/12/27 07:51:39;;;;;;;2.50;2.05;;;;;;;;;;4997099;28;20050;-90
2022/12/27 07:54:07;;;;;;;4.22;2.42;;;;;;;;;;4994664;28;20058;-90
2022/12/27 07:56:34;;;;;;;3.80;2.25;;;;;;;;;;4995777;28;20050;-89
2022/12/27 07:59:01;;;;;;;6.57;2.90;;;;;;;;;;5013060;28;20056;-90
2022/12/27 08:02:02;;;;;;;4.50;1.90;;;;;;;;;;4996326;28;20046;-89
2022/12/27 08:04:17;;;;;;;5.93;2.50;;;;;;;;;;5013205;28;20125;-90
2022/12/27 08:06:45;;;;;;;3.55;2.00;;;;;;;;;;4999349;28;20053;-90
2022/12/27 08:09:13;;;;;;;4.57;2.40;;;;;;;;;;4999793;28;20054;-89
2022/12/27 08:11:40;;;;;;;4.03;2.03;;;;;;;;;;4999750;28;20042;-90
2022/12/27 08:14:08;;;;;;;3.95;1.63;;;;;;;;;;4999680;28;20068;-90
2022/12/27 08:16:35;;;;;;;5.68;2.05;;;;;;;;;;4999789;28;20060;-89
2022/12/27 08:19:02;;;;;;;2.10;1.75;;;;;;;;;;4999585;28;20053;-90
2022/12/27 08:21:34;;;;;;;2.17;1.98;;;;;;;;;;5000376;28;20060;-89
2022/12/27 08:24:01;;;;;;;6.68;1.98;;;;;;;;;;4999305;28;20141;-89
2022/12/27 08:26:29;;;;;;;6.82;1.70;;;;;;;;;;4999206;28;20050;-89
2022/12/27 08:28:56;;;;;;;9.63;2.53;;;;;;;;;;4999590;28;20050;-88
2022/12/27 08:31:23;;;;;;;5.15;1.20;;;;;;;;;;4999263;28;20050;-89
2022/12/27 08:33:53;;;;;;;4.85;1.52;;;;;;;;;;4999056;28;20045;-88
2022/12/27 08:36:24;;;;;;;4.78;1.48;;;;;;;;;;4999787;28;20064;-88
2022/12/27 08:39:12;;;;;;;3.03;1.52;;;;;;;;;;5002067;28;20055;-88
2022/12/27 08:41:39;;;;;;;4.30;2.40;;;;;;;;;;4998961;28;20058;-88
2022/12/27 08:44:06;;;;;;;40.22;22.20;;;;;;;;;;4998945;28;20076;-88
2022/12/27 08:46:33;;;;;;;29.65;16.15;;;;;;;;;;4999048;28;20072;-88
2022/12/27 08:49:01;;;;;;;13.73;3.30;;;;;;;;;;4998760;28;20069;-87
2022/12/27 08:51:28;;;;;;;13.52;8.80;;;;;;;;;;4998844;28;20048;-88
2022/12/27 08:54:06;;;;;;;4.38;2.72;;;;;;;;;;5000040;28;20410;-88
2022/12/27 08:56:33;;;;;;;6.07;2.90;;;;;;;;;;4998514;28;20058;-88
2022/12/27 08:59:00;;;;;;;5.95;2.47;;;;;;;;;;4998794;28;20053;-88
2022/12/27 09:01:28;;;;;;;2.95;1.92;;;;;;;;;;4998510;28;20054;-88
2022/12/27 09:03:55;;;;;;;5.35;3.83;;;;;;;;;;4998591;28;20050;-88
2022/12/27 09:06:24;;;;;;;8.18;3.40;;;;;;;;;;4998160;28;20419;-88
2022/12/27 09:08:53;;;;;;;3.88;2.10;;;;;;;;;;4998367;28;20574;-88
2022/12/27 09:11:20;;;;;;;4.20;2.00;;;;;;;;;;4998439;28;20046;-87
2022/12/27 09:13:48;;;;;;;4.05;1.30;;;;;;;;;;4998198;28;20053;-87
2022/12/27 09:16:16;;;;;;;4.00;1.27;;;;;;;;;;4998006;28;20056;-88
2022/12/27 09:18:46;;;;;;;3.75;1.40;;;;;;;;;;4997922;28;20080;-88
2022/12/27 09:21:15;;;;;;;2.35;1.10;;;;;;;;;;4998092;28;20072;-87
2022/12/27 09:23:43;;;;;;;2.60;1.10;;;;;;;;;;4998167;28;20129;-88
2022/12/27 09:26:15;;;;;;;1.55;1.10;;;;;;;;;;5015008;28;20045;-88
2022/12/27 09:28:42;;;;;;;2.70;1.17;;;;;;;;;;4997720;28;20056;-88
2022/12/27 09:31:10;;;;;;;5.47;1.83;;;;;;;;;;4997796;28;20053;-88
2022/12/27 09:33:37;;;;;;;2.45;1.08;;;;;;;;;;4997596;28;20050;-90
2022/12/27 09:36:07;;;;;;;3.00;1.20;;;;;;;;;;5014879;28;20056;-88
2022/12/27 09:38:34;;;;;;;4.90;1.50;;;;;;;;;;4997783;28;20418;-88
2022/12/27 09:41:03;;;;;;;4.43;2.30;;;;;;;;;;4997260;28;20057;-88
2022/12/27 09:43:36;;;;;;;4.50;1.88;;;;;;;;;;4997649;28;20056;-88
2022/12/27 09:46:05;;;;;;;3.67;1.37;;;;;;;;;;5014044;28;20054;-87
2022/12/27 09:48:35;;;;;;;3.08;1.65;;;;;;;;;;4997496;28;20427;-89
2022/12/27 09:51:04;;;;;;;2.38;1.30;;;;;;;;;;4997388;28;20408;-87
2022/12/27 09:53:40;;;;;;;5.57;1.70;;;;;;;;;;4997436;28;20050;-87
2022/12/27 09:56:11;;;;;;;8.25;1.70;;;;;;;;;;4996958;28;20156;-87
2022/12/27 09:58:47;;;;;;;3.95;1.30;;;;;;;;;;4997388;28;20473;-87
2022/12/27 10:01:29;;;;;;;5.32;1.80;;;;;;;;;;4997285;28;20401;-87
2022/12/27 10:03:56;;;;;;;6.45;1.55;;;;;;;;;;4997558;28;20053;-87
2022/12/27 10:06:39;;;;;;;2.97;1.50;;;;;;;;;;4997357;28;20045;-88
2022/12/27 10:09:25;;;;;;;6.93;1.52;;;;;;;;;;4997315;28;20060;-88
2022/12/27 10:12:00;;;;;;;1.50;0.90;;;;;;;;;;4997457;28;20053;-88
2022/12/27 10:14:29;;;;;;;2.33;1.10;;;;;;;;;;4997453;28;20061;-87
2022/12/27 10:17:03;;;;;;;3.75;1.20;;;;;;;;;;4997335;28;20056;-87
2022/12/27 10:19:39;;;;;;;3.80;1.05;;;;;;;;;;4997352;28;20441;-88
2022/12/27 10:22:16;;;;;;;5.40;1.20;;;;;;;;;;4997119;28;20056;-88
2022/12/27 10:24:47;;;;;;;5.32;1.10;;;;;;;;;;4996792;28;20056;-88
2022/12/27 10:27:15;;;;;;;5.28;0.90;;;;;;;;;;4996974;28;20050;-87
2022/12/27 10:29:43;;;;;;;3.20;1.00;;;;;;;;;;4996031;28;20057;-88
2022/12/27 10:32:12;;;;;;;1.95;1.00;;;;;;;;;;4996626;28;20072;-88
2022/12/27 10:34:39;;;;;;;3.38;1.10;;;;;;;;;;4996630;28;20050;-88
2022/12/27 10:37:08;;;;;;;5.07;1.02;;;;;;;;;;4996887;28;20050;-88
2022/12/27 10:39:37;;;;;;;4.90;1.42;;;;;;;;;;4996634;28;20057;-88
2022/12/27 10:42:23;;;;;;;4.50;1.73;;;;;;;;;;4996781;28;20050;-88
2022/12/27 10:44:50;;;;;;;5.43;2.30;;;;;;;;;;4996692;28;20054;-88
2022/12/27 10:47:17;;;;;;;5.00;1.33;;;;;;;;;;4996572;28;20561;-88
2022/12/27 10:50:01;;;;;;;5.57;1.75;;;;;;;;;;4996420;28;20505;-88
2022/12/27 10:52:31;;;;;;;4.65;1.48;;;;;;;;;;4996710;28;20520;-88
2022/12/27 10:54:58;;;;;;;3.63;1.15;;;;;;;;;;4996281;28;20513;-88
2022/12/27 10:57:33;;;;;;;2.17;1.08;;;;;;;;;;4996569;28;20479;-87
2022/12/27 11:00:20;;;;;;;1.65;0.80;;;;;;;;;;4996544;28;20060;-87
2022/12/27 11:02:54;;;;;;;2.90;1.00;;;;;;;;;;4996228;28;20049;-88
2022/12/27 11:05:26;;;;;;;3.38;0.93;;;;;;;;;;4996657;28;20061;-88
2022/12/27 11:07:53;;;;;;;7.57;1.40;;;;;;;;;;4996237;28;20074;-88
2022/12/27 11:10:22;;;;;;;3.30;1.33;;;;;;;;;;4996469;28;20410;-88
2022/12/27 11:13:02;;;;;;;4.35;0.95;;;;;;;;;;5013583;28;20068;-88
2022/12/27 11:15:33;;;;;;;3.70;1.00;;;;;;;;;;4995953;28;20183;-87
2022/12/27 11:18:09;;;;;;;4.22;0.90;;;;;;;;;;4996187;28;20056;-87
2022/12/27 11:20:44;;;;;;;6.60;0.90;;;;;;;;;;4996138;28;20124;-88
2022/12/27 11:23:15;;;;;;;2.40;0.88;;;;;;;;;;4996456;28;20053;-87
2022/12/27 11:25:52;;;;;;;5.28;1.10;;;;;;;;;;4995962;28;20084;-87
2022/12/27 11:28:38;;;;;;;2.30;1.10;;;;;;;;;;5013209;28;20438;-87
2022/12/27 11:31:14;;;;;;;2.60;0.80;;;;;;;;;;4996096;28;20085;-89
2022/12/27 11:33:47;;;;;;;3.40;0.88;;;;;;;;;;4996366;28;20060;-88
2022/12/27 11:36:22;;;;;;;2.90;1.05;;;;;;;;;;4995920;28;20054;-88
2022/12/27 11:38:50;;;;;;;5.40;0.98;;;;;;;;;;4996370;28;20388;-88
2022/12/27 11:41:31;;;;;;;3.38;0.90;;;;;;;;;;4999989;28;20410;-88
2022/12/27 11:43:58;;;;;;;1.80;0.73;;;;;;;;;;5000022;28;20053;-87
2022/12/27 11:46:31;;;;;;;5.85;1.27;;;;;;;;;;5000208;28;20052;-88
2022/12/27 11:48:58;;;;;;;1.90;0.70;;;;;;;;;;5000002;28;20104;-88
2022/12/27 11:51:39;;;;;;;2.10;0.88;;;;;;;;;;4999895;28;20104;-88
2022/12/27 11:54:14;;;;;;;3.30;1.10;;;;;;;;;;4999505;28;20502;-88
2022/12/27 11:56:44;;;;;;;3.38;1.25;;;;;;;;;;4999831;28;20050;-87
2022/12/27 11:59:32;;;;;;;3.88;0.90;;;;;;;;;;4999716;28;20054;-88
2022/12/27 12:02:14;;;;;;;3.25;0.95;;;;;;;;;;4999595;28;20145;-88
2022/12/27 12:04:47;;;;;;;3.08;0.60;;;;;;;;;;4999485;28;20096;-88
2022/12/27 12:07:34;;;;;;;2.30;0.80;;;;;;;;;;4999639;28;20061;-87
2022/12/27 12:10:24;;;;;;;3.80;0.80;;;;;;;;;;4999591;28;20491;-87
2022/12/27 12:13:10;;;;;;;2.22;0.80;;;;;;;;;;4999519;28;20046;-86
2022/12/27 12:15:44;;;;;;;0.95;0.47;;;;;;;;;;4997954;28;20504;-87
2022/12/27 12:18:12;;;;;;;3.17;1.00;;;;;;;;;;4998614;28;20114;-88
2022/12/27 12:20:58;;;;;;;1.90;0.80;;;;;;;;;;4998763;28;20053;-88
2022/12/27 12:23:44;;;;;;;2.28;0.88;;;;;;;;;;4998457;28;20054;-88
2022/12/27 12:26:19;;;;;;;2.10;0.93;;;;;;;;;;4998513;28;20045;-88
2022/12/27 12:28:58;;;;;;;2.72;1.30;;;;;;;;;;4998249;28;20405;-88
2022/12/27 12:31:45;;;;;;;1.85;0.93;;;;;;;;;;4998503;28;20056;-88
2022/12/27 12:34:31;;;;;;;4.22;0.93;;;;;;;;;;4998227;28;20053;-87
2022/12/27 12:37:17;;;;;;;3.45;0.70;;;;;;;;;;4998407;28;20076;-87
2022/12/27 12:40:03;;;;;;;4.82;0.80;;;;;;;;;;4998157;28;20046;-88
2022/12/27 12:42:33;;;;;;;3.80;0.80;;;;;;;;;;4998582;28;20136;-88
2022/12/27 12:45:00;;;;;;;1.58;0.77;;;;;;;;;;4998111;28;20049;-88
2022/12/27 12:47:27;;;;;;;2.53;1.02;;;;;;;;;;4998167;28;20052;-88
2022/12/27 12:50:13;;;;;;;3.15;0.80;;;;;;;;;;4998105;28;20050;-88
2022/12/27 12:53:07;;;;;;;1.50;0.90;;;;;;;;;;4997670;28;20482;-88
2022/12/27 12:55:47;;;;;;;2.85;0.90;;;;;;;;;;4991930;28;20486;-88
2022/12/27 12:58:28;;;;;;;4.65;1.10;;;;;;;;;;4997999;28;20053;-88
2022/12/27 13:00:55;;;;;;;2.22;0.80;;;;;;;;;;4997988;28;20054;-88
2022/12/27 13:03:45;;;;;;;3.40;1.00;;;;;;;;;;4998021;28;20057;-88
2022/12/27 13:06:16;;;;;;;3.70;0.95;;;;;;;;;;4997911;28;20125;-87
2022/12/27 13:08:44;;;;;;;3.10;1.33;;;;;;;;;;4997932;28;20637;-88
2022/12/27 13:11:28;;;;;;;3.38;1.50;;;;;;;;;;4997466;28;20141;-88
2022/12/27 13:13:55;;;;;;;4.35;1.17;;;;;;;;;;4997588;28;20049;-88
2022/12/27 13:17:07;;;;;;;2.25;0.80;;;;;;;;;;5108134;27;20345;-89
2022/12/27 13:19:50;;;;;;;3.22;1.00;;;;;;;;;;5109570;28;20066;-89
2022/12/27 13:22:36;;;;;;;5.40;1.40;;;;;;;;;;5109800;28;20059;-88
2022/12/27 13:25:16;;;;;;;3.42;0.88;;;;;;;;;;5109813;28;20500;-89
2022/12/27 13:28:02;;;;;;;3.15;1.08;;;;;;;;;;5109596;28;20139;-88
2022/12/27 13:30:34;;;;;;;2.90;0.85;;;;;;;;;;5108086;28;20052;-89
2022/12/27 13:33:21;;;;;;;5.32;1.20;;;;;;;;;;5109526;28;20069;-89
2022/12/27 13:36:03;;;;;;;4.85;1.58;;;;;;;;;;5108967;28;20294;-89
2022/12/27 13:38:50;;;;;;;1.73;0.80;;;;;;;;;;5109370;28;20062;-88
2022/12/27 13:41:28;;;;;;;3.75;1.10;;;;;;;;;;5109404;28;20050;-88
2022/12/27 13:44:15;;;;;;;3.53;1.48;;;;;;;;;;5109252;28;20074;-89
2022/12/27 13:46:49;;;;;;;4.82;1.08;;;;;;;;;;5108613;28;20054;-89
2022/12/27 13:49:16;;;;;;;;;;;;;;;;;;5109486;28;20155;-90
2022/12/27 13:51:43;;;;;;;2.30;0.90;;;;;;;;;;5109080;28;19920;-89
2022/12/27 13:54:40;;;;;;;3.58;0.90;;;;;;;;;;5109031;28;20050;-89
2022/12/27 13:57:13;;;;;;;2.47;1.10;;;;;;;;;;5108750;28;20612;-88
2022/12/27 13:59:50;;;;;;;3.97;0.88;;;;;;;;;;5108633;28;20054;-89
2022/12/27 14:02:29;;;;;;;4.93;1.92;;;;;;;;;;5109135;28;20048;-88
2022/12/27 14:05:10;;;;;;;5.93;3.00;;;;;;;;;;5109087;28;20074;-88
2022/12/27 14:07:47;;;;;;;4.38;1.05;;;;;;;;;;5108716;28;20052;-88
2022/12/27 14:10:20;;;;;;;3.08;1.08;;;;;;;;;;5108832;28;20127;-89
2022/12/27 14:12:47;;;;;;;;;;;;;;;;;;5108956;28;20058;-89
2022/12/27 14:15:38;;;;;;;5.97;1.50;;;;;;;;;;5108247;28;20014;-89
2022/12/27 14:18:20;;;;;;;3.47;1.35;;;;;;;;;;5080642;28;20052;-88
2022/12/27 14:20:54;;;;;;;5.88;1.20;;;;;;;;;;5108615;28;20054;-89
2022/12/27 14:23:28;;;;;;;4.30;1.00;;;;;;;;;;5108466;28;20058;-89
2022/12/27 14:26:14;;;;;;;2.72;1.15;;;;;;;;;;5108212;28;20051;-89
2022/12/27 14:29:08;;;;;;;3.42;1.05;;;;;;;;;;5094436;28;20048;-89
2022/12/27 14:31:55;;;;;;;3.85;1.02;;;;;;;;;;5095044;28;20064;-88
2022/12/27 14:34:34;;;;;;;4.53;1.10;;;;;;;;;;5095156;28;20098;-88
2022/12/27 14:37:10;;;;;;;4.80;1.40;;;;;;;;;;5094346;28;20048;-88
2022/12/27 14:39:48;;;;;;;1.05;1.05;;;;;;;;;;5094719;28;20062;-88
2022/12/27 14:42:35;;;;;;;2.72;1.20;;;;;;;;;;5094707;28;20051;-88
2022/12/27 14:45:17;;;;;;;1.00;0.73;;;;;;;;;;5064408;28;20058;-89
2022/12/27 14:48:03;;;;;;;5.05;1.38;;;;;;;;;;5094611;28;20119;-88
2022/12/27 14:50:49;;;;;;;2.47;1.45;;;;;;;;;;5094277;28;20052;-88
2022/12/27 14:53:31;;;;;;;4.05;1.40;;;;;;;;;;5094538;28;20048;-89
2022/12/27 14:56:09;;;;;;;2.83;1.80;;;;;;;;;;5094297;28;20412;-88
2022/12/27 14:58:54;;;;;;;10.30;5.28;;;;;;;;;;5094399;28;20076;-88
2022/12/27 15:01:50;;;;;;;9.43;4.15;;;;;;;;;;5094622;28;20059;-88
2022/12/27 15:04:33;;;;;;;6.65;3.08;;;;;;;;;;5041776;28;20053;-89
2022/12/27 15:07:00;;;;;;;6.70;2.53;;;;;;;;;;5094256;28;20060;-88
2022/12/27 15:09:48;;;;;;;4.32;2.00;;;;;;;;;;5094601;28;20140;-88
2022/12/27 15:12:18;;;;;;;4.90;2.05;;;;;;;;;;5094336;28;20067;-89
2022/12/27 15:14:56;;;;;;;6.85;2.65;;;;;;;;;;5094053;28;20062;-89
2022/12/27 15:17:37;;;;;;;7.57;2.42;;;;;;;;;;5093989;28;20052;-89
2022/12/27 15:20:13;;;;;;;4.90;2.95;;;;;;;;;;5094048;28;20044;-89
2022/12/27 15:22:47;;;;;;;6.35;4.18;;;;;;;;;;5093987;28;20058;-88
2022/12/27 15:25:26;;;;;;;5.47;3.55;;;;;;;;;;5094044;28;20048;-88
2022/12/27 15:27:58;;;;;;;4.93;3.42;;;;;;;;;;5093689;28;20113;-88
2022/12/27 15:30:39;;;;;;;6.03;3.55;;;;;;;;;;5093761;28;20482;-89
2022/12/27 15:33:22;;;;;;;9.27;4.55;;;;;;;;;;5093595;28;20052;-89
2022/12/27 15:36:13;;;;;;;9.60;5.53;;;;;;;;;;5093476;28;20397;-89
2022/12/27 15:38:50;;;;;;;13.95;6.57;;;;;;;;;;5092648;28;20381;-88
2022/12/27 15:41:31;;;;;;;14.00;6.70;;;;;;;;;;5093714;28;20100;-89
2022/12/27 15:44:14;;;;;;;14.50;6.22;;;;;;;;;;5093493;28;20480;-88
2022/12/27 15:46:44;;;;;;;21.83;7.68;;;;;;;;;;5093449;28;20052;-89
2022/12/27 15:49:30;;;;;;;18.80;7.45;;;;;;;;;;5093498;28;20040;-89
2022/12/27 15:52:21;;;;;;;23.23;9.30;;;;;;;;;;5093217;28;20052;-89
2022/12/27 15:55:03;;;;;;;22.90;8.88;;;;;;;;;;5093476;28;20063;-89
2022/12/27 15:57:41;;;;;;;17.13;8.68;;;;;;;;;;5092675;28;20146;-88
2022/12/27 16:00:09;;;;;;;12.13;6.28;;;;;;;;;;5093158;28;20048;-88
2022/12/27 16:02:49;;;;;;;11.50;6.03;;;;;;;;;;5093286;28;20068;-89
2022/12/27 16:05:24;;;;;;;15.60;5.45;;;;;;;;;;5093148;28;20130;-88
2022/12/27 16:07:57;;;;;;;8.90;4.47;;;;;;;;;;5093101;28;20047;-88
2022/12/27 16:10:25;;;;;;;;;;;;;;;;;;5093366;28;20082;-89
2022/12/27 16:12:53;;;;;;;16.42;7.25;;;;;;;;;;5093004;28;19920;-88
2022/12/27 16:15:41;;;;;;;15.77;8.20;;;;;;;;;;5092336;28;20056;-89
2022/12/27 16:18:32;;;;;;;7.75;5.55;;;;;;;;;;5092369;28;20051;-89
2022/12/27 16:21:01;;;;;;;5.88;2.83;;;;;;;;;;5063671;28;20054;-89
2022/12/27 16:23:30;;;;;;;7.13;3.45;;;;;;;;;;5092654;28;20079;-89
2022/12/27 16:26:00;;;;;;;11.32;6.57;;;;;;;;;;5092456;28;20075;-89
2022/12/27 16:28:28;;;;;;;10.13;4.53;;;;;;;;;;5093765;28;20052;-89
2022/12/27 16:31:00;;;;;;;7.57;3.15;;;;;;;;;;5092643;28;20063;-89
2022/12/27 16:33:28;;;;;;;5.72;2.17;;;;;;;;;;5092700;28;20458;-88
2022/12/27 16:36:21;;;;;;;8.82;2.42;;;;;;;;;;5091449;28;20144;-89
2022/12/27 16:38:58;;;;;;;4.93;3.13;;;;;;;;;;5090355;28;20048;-89
2022/12/27 16:41:29;;;;;;;8.95;2.67;;;;;;;;;;5092686;28;20127;-89
2022/12/27 16:43:59;;;;;;;9.27;1.80;;;;;;;;;;5092652;28;20052;-88
2022/12/27 16:46:41;;;;;;;4.82;2.35;;;;;;;;;;5094832;28;20345;-88
2022/12/27 16:49:21;;;;;;;8.05;3.17;;;;;;;;;;5092341;28;20126;-88
2022/12/27 16:52:02;;;;;;;7.00;2.03;;;;;;;;;;5091994;28;20405;-88
2022/12/27 16:54:42;;;;;;;5.00;2.03;;;;;;;;;;5092076;28;20056;-88
2022/12/27 16:57:25;;;;;;;5.72;1.65;;;;;;;;;;5091728;28;20048;-89
2022/12/27 16:59:56;;;;;;;7.90;2.20;;;;;;;;;;5091996;28;20476;-89